Time;durP1;ratioP1;P1;durP2;ratioP2;P2;SDS_P1;SDS_P2;PMS_P1;PMS_P2;Temp;Humidity;BMP_temperature;BMP_pressure;BME280_temperature;BME280_humidity;BME280_pressure;Samples;Min_cycle;Max_cycle;Signal;HPM_P1;HPM_P2
2021/04/26 00:01:26;;;;;;;4.40;2.60;;;8.00;66.80;;;;;;5092854;28;20208;-56
2021/04/26 00:03:52;;;;;;;5.17;2.73;;;7.90;67.00;;;;;;5092622;28;20234;-56
2021/04/26 00:06:18;;;;;;;5.17;2.40;;;7.80;67.70;;;;;;5092864;28;20266;-58
2021/04/26 00:08:45;;;;;;;4.67;2.60;;;7.80;68.00;;;;;;5092629;28;20294;-58
2021/04/26 00:11:12;;;;;;;5.10;2.60;;;7.80;67.90;;;;;;5092685;28;20200;-57
2021/04/26 00:13:38;;;;;;;7.37;3.27;;;7.80;68.30;;;;;;5092204;28;20225;-58
2021/04/26 00:16:05;;;;;;;5.73;3.20;;;7.80;68.50;;;;;;5092217;28;20232;-57
2021/04/26 00:18:31;;;;;;;7.07;2.73;;;7.80;68.90;;;;;;5092482;28;20634;-58
2021/04/26 00:20:58;;;;;;;7.27;2.93;;;7.80;69.30;;;;;;5092470;28;20208;-57
2021/04/26 00:23:24;;;;;;;6.73;2.93;;;7.70;70.00;;;;;;5092250;28;20208;-57
2021/04/26 00:25:50;;;;;;;5.23;2.67;;;7.60;70.60;;;;;;5092295;28;20730;-57
2021/04/26 00:28:17;;;;;;;5.07;3.20;;;7.60;70.90;;;;;;5092103;28;20209;-57
2021/04/26 00:30:43;;;;;;;7.63;3.23;;;7.60;71.40;;;;;;5092314;28;20212;-57
2021/04/26 00:33:10;;;;;;;5.17;2.73;;;7.50;71.70;;;;;;5092209;28;20285;-58
2021/04/26 00:35:36;;;;;;;6.53;3.10;;;7.50;71.70;;;;;;5091970;28;20224;-57
2021/04/26 00:38:02;;;;;;;4.87;3.00;;;7.50;72.00;;;;;;5092377;28;20281;-56
2021/04/26 00:40:28;;;;;;;6.83;3.33;;;7.60;71.70;;;;;;5092015;28;20208;-56
2021/04/26 00:42:55;;;;;;;5.47;3.03;;;7.60;71.90;;;;;;5091912;28;20208;-56
2021/04/26 00:45:25;;;;;;;5.97;2.70;;;7.60;72.30;;;;;;5092029;28;20514;-57
2021/04/26 00:47:51;;;;;;;6.07;3.07;;;7.60;72.30;;;;;;5092151;28;20208;-57
2021/04/26 00:50:21;;;;;;;5.47;3.30;;;7.60;72.80;;;;;;5092220;28;20204;-57
2021/04/26 00:52:48;;;;;;;7.00;3.20;;;7.50;73.00;;;;;;5091823;28;20227;-56
2021/04/26 00:55:16;;;;;;;4.47;2.73;;;7.50;73.50;;;;;;5092039;28;20232;-57
2021/04/26 00:57:42;;;;;;;7.20;3.10;;;7.40;73.80;;;;;;5091869;28;20205;-59
2021/04/26 01:00:10;;;;;;;4.87;2.93;;;7.30;74.40;;;;;;5092379;28;20208;-59
2021/04/26 01:02:38;;;;;;;6.53;3.10;;;7.30;74.80;;;;;;5091951;28;20204;-58
2021/04/26 01:05:07;;;;;;;6.10;3.60;;;7.20;75.90;;;;;;5091591;28;20231;-59
2021/04/26 01:07:34;;;;;;;6.07;3.30;;;7.20;75.60;;;;;;5091817;28;20220;-57
2021/04/26 01:10:01;;;;;;;5.97;3.47;;;7.10;75.80;;;;;;5091689;28;20204;-58
2021/04/26 01:12:38;;;;;;;6.07;3.57;;;7.10;76.40;;;;;;5091768;28;20686;-55
2021/04/26 01:15:11;;;;;;;8.30;3.80;;;7.00;76.60;;;;;;5091275;28;20655;-56
2021/04/26 01:17:46;;;;;;;5.90;3.60;;;7.00;77.10;;;;;;5091504;28;20208;-56
2021/04/26 01:20:49;;;;;;;6.33;3.47;;;7.00;77.00;;;;;;5091367;28;20629;-57
2021/04/26 01:24:00;;;;;;;8.17;3.40;;;7.00;77.30;;;;;;5070914;28;20207;-56
2021/04/26 01:26:31;;;;;;;7.00;3.53;;;6.90;77.60;;;;;;5091216;28;20204;-57
2021/04/26 01:29:07;;;;;;;4.90;3.03;;;6.90;77.80;;;;;;5091334;28;20311;-56
2021/04/26 01:31:44;;;;;;;7.57;3.50;;;6.90;77.90;;;;;;5091391;28;20204;-56
2021/04/26 01:34:11;;;;;;;5.57;3.57;;;6.90;78.00;;;;;;5091154;28;20595;-57
2021/04/26 01:36:38;;;;;;;6.47;3.60;;;6.90;77.80;;;;;;5091173;28;20216;-57
2021/04/26 01:39:06;;;;;;;5.77;3.43;;;6.90;78.10;;;;;;5090983;28;20231;-57
2021/04/26 01:41:33;;;;;;;9.57;4.37;;;6.90;78.10;;;;;;5091191;28;20209;-55
2021/04/26 01:44:01;;;;;;;6.53;3.67;;;6.80;78.00;;;;;;5091002;28;20208;-57
2021/04/26 01:46:28;;;;;;;5.50;3.67;;;6.90;78.20;;;;;;5091097;28;20207;-57
2021/04/26 01:48:56;;;;;;;7.47;4.13;;;6.90;78.00;;;;;;5091038;28;20327;-57
2021/04/26 01:51:23;;;;;;;4.67;3.47;;;6.80;78.10;;;;;;5090926;28;20239;-58
2021/04/26 01:53:50;;;;;;;6.87;3.60;;;6.80;77.90;;;;;;5090697;28;20221;-58
2021/04/26 01:56:17;;;;;;;8.67;3.53;;;6.80;78.00;;;;;;5091420;28;20207;-59
2021/04/26 01:58:50;;;;;;;5.20;3.27;;;6.70;78.10;;;;;;5090856;28;20781;-57
2021/04/26 02:01:18;;;;;;;6.57;3.40;;;6.70;78.40;;;;;;5091014;28;20207;-56
2021/04/26 02:03:49;;;;;;;9.03;3.60;;;6.60;78.60;;;;;;5090670;28;20204;-57
2021/04/26 02:06:17;;;;;;;6.87;3.70;;;6.60;78.30;;;;;;5093350;28;20224;-57
2021/04/26 02:08:44;;;;;;;5.30;3.77;;;6.50;78.20;;;;;;5095104;28;20208;-57
2021/04/26 02:11:11;;;;;;;6.73;3.70;;;6.50;77.90;;;;;;5095103;28;20245;-57
2021/04/26 02:13:39;;;;;;;7.13;3.73;;;6.60;77.80;;;;;;5094727;28;20306;-57
2021/04/26 02:16:06;;;;;;;9.10;3.93;;;6.50;77.50;;;;;;5094853;28;20247;-59
2021/04/26 02:18:32;;;;;;;6.60;3.53;;;6.60;77.80;;;;;;5094920;28;20573;-57
2021/04/26 02:20:58;;;;;;;6.07;3.40;;;6.60;77.50;;;;;;5095167;28;20249;-57
2021/04/26 02:23:25;;;;;;;6.73;3.50;;;6.50;77.50;;;;;;5094842;28;20212;-56
2021/04/26 02:25:52;;;;;;;5.17;3.33;;;6.50;77.40;;;;;;5094803;28;20223;-56
2021/04/26 02:28:19;;;;;;;8.43;4.00;;;6.50;77.30;;;;;;5094646;28;20215;-57
2021/04/26 02:30:53;;;;;;;6.17;3.27;;;6.40;77.40;;;;;;5094722;28;20208;-56
2021/04/26 02:33:23;;;;;;;7.47;3.53;;;6.40;77.30;;;;;;5094492;28;20219;-56
2021/04/26 02:35:54;;;;;;;7.03;3.80;;;6.40;77.10;;;;;;5094664;28;20224;-56
2021/04/26 02:38:28;;;;;;;4.80;3.50;;;6.30;77.00;;;;;;5094646;28;20212;-57
2021/04/26 02:41:02;;;;;;;5.83;3.77;;;6.30;77.00;;;;;;5094596;28;20261;-57
2021/04/26 02:43:29;;;;;;;5.77;3.43;;;6.30;77.20;;;;;;5094263;28;20200;-57
2021/04/26 02:45:58;;;;;;;5.40;3.17;;;6.20;77.50;;;;;;5094186;28;20228;-57
2021/04/26 02:48:26;;;;;;;10.47;3.60;;;6.20;77.20;;;;;;5094594;28;20212;-58
2021/04/26 02:50:54;;;;;;;5.40;3.30;;;6.30;77.20;;;;;;5094679;28;20624;-57
2021/04/26 02:53:24;;;;;;;7.10;3.53;;;6.30;77.10;;;;;;5094835;28;20231;-58
2021/04/26 02:55:52;;;;;;;6.00;3.40;;;6.40;77.00;;;;;;5094489;28;20707;-58
2021/04/26 02:58:20;;;;;;;8.60;3.80;;;6.40;76.80;;;;;;5093949;28;20231;-59
2021/04/26 03:00:48;;;;;;;8.73;3.57;;;6.40;76.60;;;;;;5094121;28;20211;-57
2021/04/26 03:03:15;;;;;;;6.03;3.50;;;6.50;76.40;;;;;;5094128;28;20200;-59
2021/04/26 03:05:43;;;;;;;6.33;3.17;;;6.50;76.30;;;;;;5093739;28;20232;-57
2021/04/26 03:08:10;;;;;;;4.97;3.43;;;6.50;76.40;;;;;;5093783;28;20200;-57
2021/04/26 03:10:37;;;;;;;6.27;3.30;;;6.50;76.40;;;;;;5093690;28;20215;-57
2021/04/26 03:13:05;;;;;;;6.67;3.70;;;6.50;76.90;;;;;;5093838;28;20224;-57
2021/04/26 03:15:32;;;;;;;5.23;3.40;;;6.40;77.00;;;;;;5114707;22;20244;-61
2021/04/26 03:18:00;;;;;;;5.97;3.30;;;6.30;76.90;;;;;;5094185;28;20212;-58
2021/04/26 03:20:27;;;;;;;7.67;3.80;;;6.20;77.10;;;;;;5094555;28;20208;-59
2021/04/26 03:22:54;;;;;;;6.67;3.10;;;6.10;77.40;;;;;;5093857;28;20196;-58
2021/04/26 03:25:21;;;;;;;6.00;4.23;;;6.00;77.40;;;;;;5084622;28;20278;-59
2021/04/26 03:27:50;;;;;;;5.23;3.20;;;5.90;77.90;;;;;;5073824;28;20204;-58
2021/04/26 03:30:20;;;;;;;7.87;3.63;;;5.70;78.30;;;;;;5074045;28;20205;-59
2021/04/26 03:32:49;;;;;;;6.50;3.50;;;5.60;78.60;;;;;;5073544;28;20219;-58
2021/04/26 03:35:17;;;;;;;7.23;3.53;;;5.60;78.70;;;;;;5073309;28;20632;-58
2021/04/26 03:37:45;;;;;;;4.80;3.20;;;5.60;78.60;;;;;;5074258;28;20209;-59
2021/04/26 03:40:15;;;;;;;6.17;3.33;;;5.50;78.50;;;;;;5073709;28;20672;-57
2021/04/26 03:42:42;;;;;;;7.27;3.50;;;5.50;78.60;;;;;;5073487;28;20672;-57
2021/04/26 03:45:09;;;;;;;5.80;3.23;;;5.50;78.60;;;;;;5073304;28;20739;-58
2021/04/26 03:47:35;;;;;;;4.63;2.87;;;5.50;78.40;;;;;;5073368;28;20235;-58
2021/04/26 03:50:03;;;;;;;7.03;3.90;;;5.50;79.10;;;;;;5073785;28;20205;-58
2021/04/26 03:52:29;;;;;;;6.40;3.23;;;5.50;78.60;;;;;;5073401;28;20209;-59
2021/04/26 03:54:55;;;;;;;7.07;3.27;;;5.50;78.40;;;;;;5073580;28;20228;-58
2021/04/26 03:57:22;;;;;;;7.03;3.27;;;5.50;78.40;;;;;;5073598;28;20350;-58
2021/04/26 03:59:48;;;;;;;5.00;3.30;;;5.60;78.30;;;;;;5073571;28;20258;-58
2021/04/26 04:02:14;;;;;;;6.73;3.57;;;5.60;78.00;;;;;;5073555;28;20205;-58
2021/04/26 04:04:41;;;;;;;7.47;3.37;;;5.60;78.00;;;;;;5073450;28;20225;-58
2021/04/26 04:07:08;;;;;;;4.90;3.80;;;5.60;78.00;;;;;;5073679;28;20237;-58
2021/04/26 04:09:34;;;;;;;5.10;3.07;;;5.60;77.70;;;;;;5073287;28;20205;-59
2021/04/26 04:12:00;;;;;;;5.63;3.20;;;5.60;77.60;;;;;;5073174;28;20277;-58
2021/04/26 04:14:26;;;;;;;7.67;3.20;;;5.60;77.70;;;;;;5072493;28;20695;-58
2021/04/26 04:16:52;;;;;;;4.97;3.20;;;5.50;77.70;;;;;;5073130;28;20232;-58
2021/04/26 04:19:19;;;;;;;6.57;2.90;;;5.50;77.90;;;;;;5072827;28;20215;-58
2021/04/26 04:21:45;;;;;;;9.00;3.30;;;5.50;77.70;;;;;;5072839;28;20242;-58
2021/04/26 04:24:12;;;;;;;6.47;3.17;;;5.50;77.50;;;;;;5072470;28;20726;-58
2021/04/26 04:26:38;;;;;;;8.97;3.30;;;5.60;77.60;;;;;;5072705;28;20242;-58
2021/04/26 04:29:06;;;;;;;7.90;3.93;;;5.50;77.50;;;;;;5071660;28;20216;-57
2021/04/26 04:31:32;;;;;;;7.00;3.20;;;5.50;77.70;;;;;;5072433;28;20673;-58
2021/04/26 04:33:59;;;;;;;5.80;3.60;;;5.50;77.50;;;;;;5072557;28;20282;-58
2021/04/26 04:36:25;;;;;;;7.53;3.83;;;5.60;77.30;;;;;;5072942;28;20229;-58
2021/04/26 04:38:51;;;;;;;6.97;3.67;;;5.70;77.00;;;;;;5072972;28;20265;-57
2021/04/26 04:41:18;;;;;;;6.30;3.50;;;5.70;76.80;;;;;;5072677;28;20262;-58
2021/04/26 04:43:44;;;;;;;5.90;3.77;;;5.80;76.30;;;;;;5072832;28;20201;-57
2021/04/26 04:46:10;;;;;;;3.93;3.03;;;5.90;76.10;;;;;;5072374;28;20278;-58
2021/04/26 04:48:37;;;;;;;6.03;3.40;;;6.00;75.80;;;;;;5072447;28;20205;-58
2021/04/26 04:51:03;;;;;;;8.10;3.07;;;6.10;75.40;;;;;;5072937;28;20204;-58
2021/04/26 04:53:30;;;;;;;4.90;3.23;;;6.20;75.40;;;;;;5071847;28;20268;-58
2021/04/26 04:55:56;;;;;;;5.73;3.23;;;6.20;75.30;;;;;;5072193;28;20255;-58
2021/04/26 04:58:23;;;;;;;5.87;3.30;;;6.20;75.10;;;;;;5071743;28;20209;-58
2021/04/26 05:00:49;;;;;;;7.47;3.20;;;6.20;75.20;;;;;;5071676;28;20201;-58
2021/04/26 05:03:16;;;;;;;7.63;3.70;;;6.20;75.40;;;;;;5071946;28;20204;-58
2021/04/26 05:05:42;;;;;;;7.03;3.70;;;6.30;75.30;;;;;;5071948;28;20225;-59
2021/04/26 05:08:08;;;;;;;6.03;3.60;;;6.50;74.80;;;;;;5071678;28;20209;-58
2021/04/26 05:10:34;;;;;;;5.00;3.10;;;6.60;74.20;;;;;;5071912;28;20205;-58
2021/04/26 05:13:00;;;;;;;9.57;3.33;;;6.70;74.30;;;;;;5072068;28;20248;-59
2021/04/26 05:15:28;;;;;;;4.50;3.63;;;6.80;73.80;;;;;;5071475;28;20237;-59
2021/04/26 05:17:55;;;;;;;9.67;3.93;;;6.90;73.40;;;;;;5071476;28;20205;-59
2021/04/26 05:20:22;;;;;;;8.33;4.93;;;7.00;73.30;;;;;;5071703;28;20695;-60
2021/04/26 05:22:48;;;;;;;6.00;3.20;;;7.20;73.00;;;;;;5071922;28;20220;-59
2021/04/26 05:25:15;;;;;;;6.40;3.17;;;7.20;72.20;;;;;;5071260;28;20715;-59
2021/04/26 05:27:41;;;;;;;5.33;3.37;;;7.30;72.40;;;;;;5071556;28;20204;-60
2021/04/26 05:30:10;;;;;;;8.33;3.33;;;7.30;72.00;;;;;;5071092;28;20204;-60
2021/04/26 05:32:38;;;;;;;6.37;3.30;;;7.40;71.70;;;;;;5071049;28;20680;-59
2021/04/26 05:35:06;;;;;;;5.53;3.70;;;7.50;71.30;;;;;;5070959;28;20645;-58
2021/04/26 05:37:32;;;;;;;8.40;3.07;;;7.70;71.10;;;;;;5071297;28;20208;-60
2021/04/26 05:39:58;;;;;;;6.13;3.53;;;8.10;70.00;;;;;;5070565;28;20209;-60
2021/04/26 05:42:24;;;;;;;8.50;3.60;;;8.90;68.70;;;;;;5071373;28;20738;-60
2021/04/26 05:44:51;;;;;;;8.17;3.20;;;10.60;64.10;;;;;;5070656;28;20566;-62
2021/04/26 05:47:17;;;;;;;5.83;3.47;;;12.80;58.60;;;;;;5071151;28;20242;-61
2021/04/26 05:49:44;;;;;;;7.47;3.30;;;15.00;54.30;;;;;;5071299;28;20216;-60
2021/04/26 05:52:10;;;;;;;5.37;2.97;;;16.90;50.70;;;;;;5071209;28;20213;-61
2021/04/26 05:54:36;;;;;;;6.77;3.10;;;18.50;47.30;;;;;;5070811;28;20482;-59
2021/04/26 05:57:03;;;;;;;9.70;4.43;;;19.90;43.90;;;;;;5071042;28;20200;-61
2021/04/26 05:59:29;;;;;;;5.15;2.95;;;21.00;42.40;;;;;;5070768;28;20212;-61
2021/04/26 06:01:55;;;;;;;6.55;3.05;;;21.90;40.50;;;;;;5071162;28;20197;-61
2021/04/26 06:04:21;;;;;;;5.88;3.28;;;22.70;39.80;;;;;;5071105;28;20197;-62
2021/04/26 06:06:48;;;;;;;4.78;2.95;;;23.80;38.30;;;;;;5071038;28;20204;-60
2021/04/26 06:09:15;;;;;;;9.18;4.15;;;24.60;37.20;;;;;;5070950;28;20205;-61
2021/04/26 06:11:41;;;;;;;4.80;3.60;;;24.90;35.60;;;;;;5071017;28;20565;-61
2021/04/26 06:14:07;;;;;;;5.30;3.05;;;25.10;35.70;;;;;;5070708;28;20217;-61
2021/04/26 06:16:34;;;;;;;6.43;3.05;;;25.60;35.00;;;;;;5071098;28;20605;-61
2021/04/26 06:19:00;;;;;;;4.80;3.25;;;26.10;33.60;;;;;;5071034;28;20205;-62
2021/04/26 06:21:26;;;;;;;5.45;2.83;;;26.50;33.20;;;;;;5071043;28;20217;-62
2021/04/26 06:23:53;;;;;;;6.35;2.83;;;27.10;32.50;;;;;;5071057;28;20201;-62
2021/04/26 06:26:19;;;;;;;7.00;3.58;;;27.60;31.80;;;;;;5070880;28;20266;-61
2021/04/26 06:28:45;;;;;;;5.63;2.90;;;27.60;31.90;;;;;;5070476;28;20212;-61
2021/04/26 06:31:13;;;;;;;5.18;3.08;;;27.60;30.90;;;;;;5070365;28;20266;-61
2021/04/26 06:33:39;;;;;;;4.10;3.15;;;27.40;31.20;;;;;;5070009;28;20319;-62
2021/04/26 06:36:05;;;;;;;6.45;3.47;;;27.60;30.60;;;;;;5070764;28;20233;-62
2021/04/26 06:38:32;;;;;;;8.90;3.13;;;27.90;30.70;;;;;;5070811;28;20444;-62
2021/04/26 06:40:59;;;;;;;5.07;3.05;;;28.20;30.00;;;;;;5070569;28;20699;-62
2021/04/26 06:43:26;;;;;;;5.38;3.08;;;28.60;29.80;;;;;;5070392;28;20219;-62
2021/04/26 06:45:52;;;;;;;6.65;3.42;;;28.40;29.90;;;;;;5070530;28;20719;-61
2021/04/26 06:48:18;;;;;;;7.07;2.97;;;28.50;29.90;;;;;;5070795;28;20204;-62
2021/04/26 06:50:46;;;;;;;5.82;3.10;;;28.60;29.90;;;;;;5070737;28;20205;-62
2021/04/26 06:53:13;;;;;;;5.35;3.05;;;28.90;29.40;;;;;;5073812;28;20225;-62
2021/04/26 06:55:39;;;;;;;7.72;3.38;;;29.20;29.10;;;;;;5074109;28;20225;-62
2021/04/26 06:58:07;;;;;;;5.30;2.95;;;28.70;29.40;;;;;;5074361;28;20201;-62
2021/04/26 07:00:33;;;;;;;9.93;3.42;;;28.50;29.50;;;;;;5074440;28;20200;-61
2021/04/26 07:03:00;;;;;;;7.45;3.47;;;28.30;29.50;;;;;;5074149;28;20205;-60
2021/04/26 07:05:27;;;;;;;6.18;3.30;;;28.10;29.50;;;;;;5074260;28;20239;-65
2021/04/26 07:07:53;;;;;;;6.38;3.70;;;27.90;30.10;;;;;;5074150;28;20295;-64
2021/04/26 07:10:19;;;;;;;5.80;3.00;;;27.80;30.00;;;;;;5074419;28;20212;-64
2021/04/26 07:12:46;;;;;;;6.43;3.45;;;27.70;30.00;;;;;;5074805;28;20232;-64
2021/04/26 07:15:15;;;;;;;5.95;3.50;;;27.70;29.90;;;;;;5073949;28;20718;-63
2021/04/26 07:17:42;;;;;;;6.50;3.42;;;27.50;30.10;;;;;;5074461;28;20624;-64
2021/04/26 07:20:11;;;;;;;5.43;3.60;;;26.70;30.70;;;;;;5074493;28;20216;-63
2021/04/26 07:22:37;;;;;;;3.78;2.80;;;25.90;31.30;;;;;;5073848;28;20201;-63
2021/04/26 07:25:05;;;;;;;5.32;3.53;;;25.40;32.20;;;;;;5073755;28;20270;-64
2021/04/26 07:27:32;;;;;;;4.80;3.55;;;25.90;31.80;;;;;;5074381;28;20253;-63
2021/04/26 07:29:58;;;;;;;4.53;3.10;;;26.90;31.10;;;;;;5074012;28;20205;-64
2021/04/26 07:32:25;;;;;;;4.82;3.00;;;27.10;30.80;;;;;;5074076;28;20208;-65
2021/04/26 07:34:52;;;;;;;5.13;3.35;;;27.40;30.50;;;;;;5073954;28;20233;-64
2021/04/26 07:37:18;;;;;;;5.18;2.88;;;28.20;29.60;;;;;;5073876;28;20248;-64
2021/04/26 07:39:45;;;;;;;5.45;3.45;;;28.80;29.40;;;;;;5074247;28;20653;-65
2021/04/26 07:42:11;;;;;;;6.15;3.35;;;28.80;28.80;;;;;;5073997;28;20258;-64
2021/04/26 07:44:38;;;;;;;6.38;3.30;;;28.00;29.80;;;;;;5074229;28;20221;-66
2021/04/26 07:47:05;;;;;;;7.18;3.28;;;28.20;29.50;;;;;;5073703;28;20213;-62
2021/04/26 07:49:32;;;;;;;6.22;3.40;;;28.50;29.40;;;;;;5073328;28;20250;-62
2021/04/26 07:51:59;;;;;;;6.28;3.42;;;28.40;29.50;;;;;;5072983;28;20204;-61
2021/04/26 07:54:25;;;;;;;9.70;3.83;;;28.70;29.50;;;;;;5073175;28;20224;-62
2021/04/26 07:56:51;;;;;;;5.53;3.42;;;29.00;29.10;;;;;;5072869;28;20591;-62
2021/04/26 07:59:19;;;;;;;4.68;3.28;;;29.40;29.50;;;;;;5072803;28;20205;-62
2021/04/26 08:01:45;;;;;;;6.07;3.45;;;29.90;28.90;;;;;;5073177;28;20628;-61
2021/04/26 08:04:11;;;;;;;6.40;3.10;;;30.30;28.20;;;;;;5071658;28;20575;-63
2021/04/26 08:06:39;;;;;;;6.35;3.53;;;30.20;28.40;;;;;;5072028;28;20205;-62
2021/04/26 08:09:06;;;;;;;5.50;3.15;;;30.30;28.00;;;;;;5072634;28;20205;-62
2021/04/26 08:11:32;;;;;;;4.88;3.00;;;30.20;28.10;;;;;;5072572;28;20591;-59
2021/04/26 08:13:58;;;;;;;7.00;3.70;;;30.00;28.20;;;;;;5072495;28;20227;-59
2021/04/26 08:16:25;;;;;;;5.80;3.58;;;29.60;28.50;;;;;;5072456;28;20237;-59
2021/04/26 08:18:51;;;;;;;6.75;4.78;;;29.00;28.80;;;;;;5072132;28;20251;-59
2021/04/26 08:21:18;;;;;;;8.98;3.80;;;28.70;29.20;;;;;;5072560;28;20649;-57
2021/04/26 08:23:45;;;;;;;4.25;3.22;;;28.30;29.60;;;;;;5072544;28;20209;-60
2021/04/26 08:26:11;;;;;;;7.38;3.88;;;26.90;30.60;;;;;;5072653;28;20225;-59
2021/04/26 08:28:38;;;;;;;6.05;3.75;;;25.40;32.00;;;;;;5072351;28;20197;-58
2021/04/26 08:31:07;;;;;;;5.28;3.95;;;23.80;33.30;;;;;;5072442;28;20228;-58
2021/04/26 08:33:34;;;;;;;6.22;3.72;;;22.00;35.30;;;;;;5072462;28;20631;-58
2021/04/26 08:36:00;;;;;;;9.73;4.05;;;20.10;37.80;;;;;;5072054;28;20939;-58
2021/04/26 08:38:26;;;;;;;5.47;3.58;;;18.60;39.70;;;;;;5071881;28;20230;-59
2021/04/26 08:40:53;;;;;;;6.40;3.80;;;17.50;41.30;;;;;;5072229;28;20253;-59
2021/04/26 08:43:20;;;;;;;6.90;3.60;;;16.80;42.70;;;;;;5071814;28;20683;-58
2021/04/26 08:45:47;;;;;;;6.90;3.97;;;16.20;43.50;;;;;;5071460;28;20724;-58
2021/04/26 08:48:13;;;;;;;7.40;3.83;;;15.60;44.10;;;;;;5071458;28;20205;-59
2021/04/26 08:50:40;;;;;;;8.63;3.93;;;15.30;45.00;;;;;;5071774;28;20262;-59
2021/04/26 08:53:06;;;;;;;8.17;3.60;;;14.90;46.40;;;;;;5071612;28;20212;-58
2021/04/26 08:55:33;;;;;;;6.93;4.33;;;14.80;46.70;;;;;;5071449;28;20236;-59
2021/04/26 08:58:00;;;;;;;6.00;3.97;;;14.70;47.40;;;;;;5071465;28;20212;-60
2021/04/26 09:00:26;;;;;;;7.00;4.03;;;14.40;48.60;;;;;;5071554;28;20274;-59
2021/04/26 09:02:55;;;;;;;5.10;3.53;;;14.20;49.60;;;;;;5071403;28;20688;-59
2021/04/26 09:05:28;;;;;;;7.73;4.43;;;14.10;50.00;;;;;;5071217;28;20275;-59
2021/04/26 09:07:55;;;;;;;6.07;3.80;;;14.00;49.70;;;;;;5071526;28;20208;-59
2021/04/26 09:10:41;;;;;;;6.80;4.30;;;14.00;49.80;;;;;;5072014;28;20237;-59
2021/04/26 09:13:32;;;;;;;8.37;3.83;;;14.10;49.30;;;;;;5071943;28;20716;-59
2021/04/26 09:16:01;;;;;;;5.80;3.70;;;14.00;49.80;;;;;;5116766;22;20266;-62
2021/04/26 09:18:50;;;;;;;7.43;3.90;;;13.90;50.20;;;;;;5113307;28;20196;-63
2021/04/26 09:21:20;;;;;;;6.90;4.03;;;13.80;50.50;;;;;;5108711;28;20750;-63
2021/04/26 09:24:07;;;;;;;6.50;4.30;;;13.80;51.50;;;;;;5112804;28;20294;-63
2021/04/26 09:26:33;;;;;;;6.63;3.80;;;13.80;51.90;;;;;;5095484;28;20226;-63
2021/04/26 09:29:27;;;;;;;5.83;3.90;;;13.90;52.20;;;;;;5092795;28;20199;-62
2021/04/26 09:32:15;;;;;;;8.37;3.90;;;14.00;51.80;;;;;;5068023;28;20216;-63
2021/04/26 09:34:43;;;;;;;6.47;4.23;;;14.20;51.80;;;;;;5089509;28;20220;-62
2021/04/26 09:37:17;;;;;;;7.03;3.60;;;14.30;51.10;;;;;;5092182;28;20210;-63
2021/04/26 09:40:01;;;;;;;5.85;3.90;;;14.30;51.40;;;;;;5081146;28;20442;-61
2021/04/26 09:42:46;;;;;;;8.23;4.20;;;14.60;50.90;;;;;;5070515;28;20200;-62
2021/04/26 09:45:25;;;;;;;8.60;3.77;;;14.50;50.80;;;;;;5070845;28;20217;-62
2021/04/26 09:48:07;;;;;;;7.83;3.80;;;14.70;50.90;;;;;;5070837;28;20587;-64
2021/04/26 09:50:33;;;;;;;7.13;3.90;;;14.90;50.60;;;;;;5070564;28;20209;-62
2021/04/26 09:53:07;;;;;;;7.93;3.73;;;15.10;50.70;;;;;;5071710;28;20205;-61
2021/04/26 09:55:33;;;;;;;7.57;4.03;;;15.10;50.60;;;;;;5071500;28;20224;-61
2021/04/26 09:58:01;;;;;;;8.53;3.67;;;14.90;49.90;;;;;;5072119;28;20220;-62
2021/04/26 10:00:28;;;;;;;7.03;3.97;;;14.70;51.30;;;;;;5071915;28;20204;-61
2021/04/26 10:02:55;;;;;;;7.60;4.03;;;14.80;51.00;;;;;;5069975;28;20205;-63
2021/04/26 10:05:22;;;;;;;7.63;3.53;;;14.80;50.60;;;;;;5069991;28;20700;-62
2021/04/26 10:07:49;;;;;;;5.00;3.53;;;15.00;51.00;;;;;;5070828;28;20212;-61
2021/04/26 10:10:15;;;;;;;6.03;4.23;;;15.20;50.80;;;;;;5070559;28;20212;-62
2021/04/26 10:12:41;;;;;;;4.73;3.70;;;15.30;50.00;;;;;;5070627;28;20205;-62
2021/04/26 10:15:09;;;;;;;6.17;3.87;;;15.40;50.20;;;;;;5072540;28;20239;-63
2021/04/26 10:17:37;;;;;;;4.70;3.57;;;15.40;49.70;;;;;;5091746;28;20200;-63
2021/04/26 10:20:06;;;;;;;6.83;3.70;;;15.60;49.10;;;;;;5091632;28;20204;-63
2021/04/26 10:22:34;;;;;;;5.73;3.73;;;15.70;49.20;;;;;;5093509;28;20299;-62
2021/04/26 10:25:00;;;;;;;6.47;3.97;;;15.60;49.10;;;;;;5090536;28;20224;-61
2021/04/26 10:27:30;;;;;;;8.27;4.47;;;15.30;48.90;;;;;;5093239;28;20212;-60
2021/04/26 10:30:03;;;;;;;4.67;3.63;;;15.30;49.30;;;;;;5094453;28;20679;-61
2021/04/26 10:32:30;;;;;;;6.97;4.10;;;15.40;49.00;;;;;;5094491;28;20208;-60
2021/04/26 10:35:17;;;;;;;6.90;3.73;;;15.50;47.70;;;;;;5094451;28;20281;-60
2021/04/26 10:37:43;;;;;;;5.37;3.67;;;15.60;47.60;;;;;;5089377;28;20215;-58
2021/04/26 10:40:15;;;;;;;6.60;3.60;;;15.60;47.50;;;;;;5094731;28;20254;-60
2021/04/26 10:42:43;;;;;;;6.07;3.23;;;15.70;47.10;;;;;;5094302;28;20204;-60
2021/04/26 10:45:21;;;;;;;6.33;3.60;;;15.80;47.70;;;;;;5094378;28;20224;-61
2021/04/26 10:48:07;;;;;;;6.80;3.43;;;15.80;47.10;;;;;;5094381;28;20200;-62
2021/04/26 10:50:38;;;;;;;4.97;3.03;;;15.80;46.50;;;;;;5094401;28;20573;-60
2021/04/26 10:53:06;;;;;;;5.43;3.70;;;15.80;46.20;;;;;;5094210;28;20667;-60
2021/04/26 10:55:41;;;;;;;6.60;3.10;;;15.90;46.80;;;;;;5093987;28;20236;-61
2021/04/26 10:58:24;;;;;;;5.50;3.17;;;15.90;47.60;;;;;;5093988;28;20248;-61
2021/04/26 11:00:50;;;;;;;6.37;3.67;;;16.10;45.90;;;;;;5094530;28;20716;-61
2021/04/26 11:03:45;;;;;;;6.23;3.40;;;16.10;46.10;;;;;;5094410;28;20212;-61
2021/04/26 11:06:26;;;;;;;6.23;3.60;;;16.10;46.40;;;;;;5094221;28;20224;-61
2021/04/26 11:09:14;;;;;;;6.13;3.13;;;16.10;45.40;;;;;;5094125;28;20582;-62
2021/04/26 11:11:49;;;;;;;5.00;3.20;;;16.20;45.50;;;;;;5094258;28;20204;-62
2021/04/26 11:14:27;;;;;;;5.33;3.50;;;16.30;44.90;;;;;;5093745;28;20224;-60
2021/04/26 11:16:56;;;;;;;6.83;3.40;;;16.30;45.10;;;;;;5093721;28;20323;-60
2021/04/26 11:19:23;;;;;;;5.67;3.23;;;16.30;45.10;;;;;;5093430;28;20204;-61
2021/04/26 11:22:01;;;;;;;7.23;3.20;;;16.20;44.30;;;;;;5093302;28;20550;-59
2021/04/26 11:24:52;;;;;;;7.60;3.30;;;16.20;44.50;;;;;;5093334;28;20215;-62
2021/04/26 11:27:23;;;;;;;4.87;3.43;;;16.30;43.60;;;;;;5093237;28;20261;-62
2021/04/26 11:30:14;;;;;;;6.57;4.00;;;16.50;43.50;;;;;;5093333;28;20204;-60
2021/04/26 11:33:06;;;;;;;5.80;3.60;;;16.60;43.80;;;;;;5093371;28;20204;-60
2021/04/26 11:35:34;;;;;;;7.97;3.73;;;16.60;44.30;;;;;;5093119;28;20228;-62
2021/04/26 11:38:01;;;;;;;4.70;3.30;;;16.50;44.70;;;;;;5092041;28;20201;-61
2021/04/26 11:40:30;;;;;;;8.27;3.63;;;16.50;44.40;;;;;;5093302;28;20882;-61
2021/04/26 11:43:04;;;;;;;4.60;3.20;;;16.50;44.40;;;;;;5093596;28;20204;-61
2021/04/26 11:45:31;;;;;;;6.07;3.90;;;16.30;44.50;;;;;;5092962;28;20284;-62
2021/04/26 11:47:58;;;;;;;4.40;3.30;;;16.30;44.50;;;;;;5093658;28;20258;-61
2021/04/26 11:50:24;;;;;;;6.67;4.13;;;16.30;44.90;;;;;;5093256;28;20208;-62
2021/04/26 11:52:51;;;;;;;5.23;3.50;;;16.50;44.90;;;;;;5093022;28;20208;-61
2021/04/26 11:55:19;;;;;;;6.60;3.40;;;16.60;44.80;;;;;;5092700;28;20664;-61
2021/04/26 11:57:48;;;;;;;6.33;3.10;;;16.70;44.20;;;;;;5092880;28;20257;-61
2021/04/26 12:00:17;;;;;;;5.10;2.93;;;16.90;44.00;;;;;;5092807;28;20204;-61
2021/04/26 12:02:45;;;;;;;6.63;3.50;;;17.00;44.70;;;;;;5092913;28;20246;-61
2021/04/26 12:05:14;;;;;;;6.33;3.60;;;16.90;44.60;;;;;;5092647;28;20216;-61
2021/04/26 12:07:40;;;;;;;5.97;3.47;;;16.90;44.60;;;;;;5092449;28;20718;-62
2021/04/26 12:10:09;;;;;;;7.13;3.40;;;17.10;44.40;;;;;;5092583;28;20212;-61
2021/04/26 12:12:36;;;;;;;10.23;3.47;;;17.10;43.80;;;;;;5092653;28;20204;-61
2021/04/26 12:15:06;;;;;;;6.37;3.70;;;17.10;43.70;;;;;;5092321;28;20609;-61
2021/04/26 12:17:34;;;;;;;6.60;3.47;;;17.10;43.70;;;;;;5092129;28;20222;-60
2021/04/26 12:20:08;;;;;;;5.27;3.30;;;17.20;43.10;;;;;;5092665;28;20207;-60
2021/04/26 12:22:35;;;;;;;5.83;3.23;;;17.20;43.50;;;;;;5092225;28;20208;-61
2021/04/26 12:25:04;;;;;;;6.07;3.70;;;17.40;43.30;;;;;;5092166;28;20243;-62
2021/04/26 12:27:31;;;;;;;8.03;3.73;;;17.40;42.30;;;;;;5092324;28;20627;-61
2021/04/26 12:30:14;;;;;;;7.10;3.20;;;17.50;42.30;;;;;;5092570;28;20236;-63
2021/04/26 12:32:41;;;;;;;6.03;4.27;;;17.60;42.30;;;;;;5092640;28;20211;-61
2021/04/26 12:35:09;;;;;;;4.27;3.00;;;17.60;42.70;;;;;;5092015;28;20235;-62
2021/04/26 12:37:38;;;;;;;6.03;3.40;;;17.60;43.50;;;;;;5092192;28;20208;-62
2021/04/26 12:40:16;;;;;;;8.00;3.37;;;17.70;43.40;;;;;;5092215;28;20265;-62
2021/04/26 12:42:44;;;;;;;7.27;3.73;;;17.60;43.40;;;;;;5092215;28;20211;-61
2021/04/26 12:45:13;;;;;;;5.20;3.30;;;17.70;42.90;;;;;;5091820;28;20302;-60
2021/04/26 12:47:54;;;;;;;5.77;3.10;;;17.90;42.40;;;;;;5092322;28;20204;-61
2021/04/26 12:50:24;;;;;;;7.13;3.23;;;17.90;41.80;;;;;;5091706;28;20248;-61
2021/04/26 12:53:11;;;;;;;6.23;3.50;;;17.90;42.10;;;;;;5092209;28;20215;-61
2021/04/26 12:55:40;;;;;;;6.18;3.30;;;17.80;42.60;;;;;;5092077;28;20686;-61
2021/04/26 12:58:09;;;;;;;5.70;2.90;;;17.90;42.20;;;;;;5091641;28;20215;-62
2021/04/26 13:00:38;;;;;;;4.97;3.23;;;18.00;42.20;;;;;;5091768;28;20423;-61